Time;durP1;ratioP1;P1;durP2;ratioP2;P2;SDS_P1;SDS_P2;PMS_P1;PMS_P2;Temp;Humidity;BMP_temperature;BMP_pressure;BME280_temperature;BME280_humidity;BME280_pressure;Samples;Min_cycle;Max_cycle;Signal;HPM_P1;HPM_P2
2023/12/25 00:02:11;;;;;;;0.30;0.30;;;12.00;99.90;;;;;;7398980;19;20475;-84
2023/12/25 00:04:37;;;;;;;0.20;0.20;;;11.90;99.90;;;;;;7398426;19;20174;-84
2023/12/25 00:07:03;;;;;;;0.27;0.27;;;11.80;99.90;;;;;;7398697;19;20142;-83
2023/12/25 00:09:29;;;;;;;0.40;0.40;;;11.80;99.90;;;;;;7401247;19;20150;-84
2023/12/25 00:11:57;;;;;;;0.30;0.30;;;11.90;99.90;;;;;;7404020;19;20127;-83
2023/12/25 00:14:23;;;;;;;0.30;0.30;;;12.00;99.90;;;;;;7403193;19;20550;-82
2023/12/25 00:16:49;;;;;;;0.43;0.43;;;11.90;99.90;;;;;;7400076;19;20226;-82
2023/12/25 00:19:15;;;;;;;0.40;0.40;;;12.00;99.90;;;;;;7398751;19;20181;-83
2023/12/25 00:21:40;;;;;;;0.30;0.30;;;12.00;99.90;;;;;;7396563;19;20169;-83
2023/12/25 00:24:06;;;;;;;0.63;0.63;;;12.10;99.90;;;;;;7395867;19;20161;-83
2023/12/25 00:26:32;;;;;;;0.40;0.40;;;12.10;99.90;;;;;;7395070;19;20146;-83
2023/12/25 00:28:58;;;;;;;0.73;0.30;;;12.20;99.90;;;;;;7394014;19;20134;-83
2023/12/25 00:31:23;;;;;;;0.40;0.40;;;12.10;99.90;;;;;;7396778;19;20139;-84
2023/12/25 00:33:50;;;;;;;0.43;0.40;;;12.00;99.90;;;;;;7396017;19;20183;-84
2023/12/25 00:36:16;;;;;;;0.40;0.40;;;11.90;99.90;;;;;;7398103;19;20135;-84
2023/12/25 00:38:42;;;;;;;0.40;0.30;;;11.90;99.90;;;;;;7395595;19;20137;-84
2023/12/25 00:41:08;;;;;;;0.40;0.40;;;12.00;99.90;;;;;;7398430;19;20171;-83
2023/12/25 00:43:33;;;;;;;0.30;0.30;;;11.90;99.90;;;;;;7396645;19;20140;-84
2023/12/25 00:46:04;;;;;;;0.20;0.20;;;12.00;99.90;;;;;;7399613;19;20151;-83
2023/12/25 00:48:30;;;;;;;0.50;0.40;;;12.00;99.90;;;;;;7397822;19;20235;-83
2023/12/25 00:50:55;;;;;;;0.40;0.40;;;12.10;99.90;;;;;;7398713;19;20143;-83
2023/12/25 00:53:21;;;;;;;0.20;0.20;;;12.10;99.90;;;;;;7398927;19;20548;-83
2023/12/25 00:55:47;;;;;;;0.20;0.20;;;12.00;99.90;;;;;;7397463;19;20612;-83
2023/12/25 00:58:13;;;;;;;0.47;0.33;;;11.90;99.90;;;;;;7399826;19;20175;-83
2023/12/25 01:00:38;;;;;;;0.40;0.40;;;12.00;99.90;;;;;;7398665;19;20131;-84
2023/12/25 01:03:04;;;;;;;0.30;0.30;;;11.90;99.90;;;;;;7401074;19;20146;-83
2023/12/25 01:05:30;;;;;;;0.40;0.40;;;11.90;99.90;;;;;;7400283;19;20194;-84
2023/12/25 01:07:56;;;;;;;0.30;0.30;;;11.90;99.90;;;;;;7398111;19;20146;-83
2023/12/25 01:10:21;;;;;;;0.30;0.30;;;11.90;99.90;;;;;;7391497;19;20134;-85
2023/12/25 01:12:47;;;;;;;0.30;0.30;;;12.00;99.90;;;;;;7400753;19;20130;-83
2023/12/25 01:15:13;;;;;;;0.38;0.38;;;11.90;99.90;;;;;;7401191;19;20580;-85
2023/12/25 01:17:39;;;;;;;0.33;0.33;;;12.00;99.90;;;;;;7398732;19;20130;-84
2023/12/25 01:20:05;;;;;;;0.10;0.10;;;12.10;99.90;;;;;;7398576;19;20159;-84
2023/12/25 01:22:31;;;;;;;0.50;0.45;;;12.00;99.90;;;;;;7398841;19;20146;-83
2023/12/25 01:24:56;;;;;;;0.30;0.30;;;11.90;99.90;;;;;;7400408;19;20587;-83
2023/12/25 01:27:22;;;;;;;0.40;0.37;;;11.90;99.90;;;;;;7398546;19;20142;-84
2023/12/25 01:29:48;;;;;;;0.20;0.20;;;12.00;99.90;;;;;;7396596;19;20174;-83
2023/12/25 01:32:13;;;;;;;0.20;0.20;;;12.00;99.90;;;;;;7399309;19;20599;-83
2023/12/25 01:34:39;;;;;;;0.53;0.30;;;12.00;99.90;;;;;;7399971;19;20146;-83
2023/12/25 01:37:05;;;;;;;0.20;0.20;;;11.90;99.90;;;;;;7396264;19;20150;-83
2023/12/25 01:39:31;;;;;;;0.40;0.30;;;11.80;99.90;;;;;;7398385;19;20139;-84
2023/12/25 01:41:56;;;;;;;0.30;0.30;;;11.90;99.90;;;;;;7397134;19;20141;-83
2023/12/25 01:44:22;;;;;;;0.30;0.30;;;11.90;99.90;;;;;;7396260;19;20135;-83
2023/12/25 01:46:48;;;;;;;1.27;0.50;;;11.90;99.90;;;;;;7400052;19;20607;-83
2023/12/25 01:49:14;;;;;;;0.20;0.20;;;12.00;99.90;;;;;;7406058;19;20499;-82
2023/12/25 01:51:40;;;;;;;0.20;0.20;;;11.90;99.90;;;;;;7407347;19;20235;-83
2023/12/25 01:54:07;;;;;;;0.30;0.30;;;11.80;99.90;;;;;;7410862;19;20159;-84
2023/12/25 01:56:34;;;;;;;0.30;0.30;;;11.90;99.90;;;;;;7407883;19;20148;-83
2023/12/25 01:58:59;;;;;;;0.50;0.40;;;11.80;99.90;;;;;;7401135;19;20152;-84
2023/12/25 02:01:25;;;;;;;0.30;0.30;;;11.80;99.90;;;;;;7400537;19;20600;-84
2023/12/25 02:03:51;;;;;;;0.63;0.40;;;11.80;99.90;;;;;;7401880;19;20991;-83
2023/12/25 02:06:17;;;;;;;0.30;0.30;;;11.80;99.90;;;;;;7406422;19;20142;-84
2023/12/25 02:08:43;;;;;;;0.20;0.20;;;11.80;99.90;;;;;;7406534;19;20142;-83
2023/12/25 02:11:09;;;;;;;0.80;0.40;;;11.80;99.90;;;;;;7407624;19;20135;-82
2023/12/25 02:13:34;;;;;;;0.20;0.20;;;11.80;99.90;;;;;;7409300;19;20161;-82
2023/12/25 02:16:01;;;;;;;0.30;0.30;;;11.70;99.90;;;;;;7406929;19;20174;-82
2023/12/25 02:18:27;;;;;;;0.28;0.28;;;11.90;99.90;;;;;;7404986;19;20154;-82
2023/12/25 02:20:53;;;;;;;0.27;0.23;;;11.90;99.90;;;;;;7405378;19;20149;-82
2023/12/25 02:23:22;;;;;;;0.30;0.30;;;11.90;99.90;;;;;;7403813;19;20142;-82
2023/12/25 02:25:58;;;;;;;0.40;0.40;;;11.80;99.90;;;;;;7403385;19;20459;-83
2023/12/25 02:28:25;;;;;;;0.30;0.30;;;11.70;99.90;;;;;;7402122;19;20150;-84
2023/12/25 02:30:51;;;;;;;0.30;0.30;;;11.70;99.90;;;;;;7406576;19;20141;-83
2023/12/25 02:33:17;;;;;;;0.40;0.40;;;11.70;99.90;;;;;;7403710;19;20139;-81
2023/12/25 02:35:43;;;;;;;0.30;0.30;;;11.90;99.90;;;;;;7403662;19;20528;-83
2023/12/25 02:38:09;;;;;;;0.38;0.28;;;11.90;99.90;;;;;;7403589;19;20130;-83
2023/12/25 02:40:40;;;;;;;0.27;0.27;;;11.80;99.90;;;;;;7402933;19;20141;-84
2023/12/25 02:43:08;;;;;;;0.75;0.60;;;11.80;99.90;;;;;;7403373;19;20173;-83
2023/12/25 02:45:34;;;;;;;0.28;0.17;;;11.80;99.90;;;;;;7404209;19;20137;-83
2023/12/25 02:48:00;;;;;;;0.33;0.33;;;11.70;99.90;;;;;;7405531;19;20202;-83
2023/12/25 02:50:25;;;;;;;0.47;0.37;;;11.90;99.90;;;;;;7404292;19;20135;-83
2023/12/25 02:52:51;;;;;;;0.40;0.40;;;11.80;99.90;;;;;;7401261;19;20231;-83
2023/12/25 02:55:17;;;;;;;0.30;0.30;;;11.80;99.90;;;;;;7402618;19;20138;-84
2023/12/25 02:57:43;;;;;;;0.30;0.30;;;11.80;99.90;;;;;;7401364;19;20267;-83
2023/12/25 03:00:09;;;;;;;0.30;0.30;;;11.80;99.90;;;;;;7401291;19;20139;-83
2023/12/25 03:02:35;;;;;;;0.40;0.40;;;11.80;99.90;;;;;;7406045;19;20163;-83
2023/12/25 03:05:01;;;;;;;0.38;0.30;;;11.70;99.90;;;;;;7400623;19;20185;-83
2023/12/25 03:07:27;;;;;;;0.20;0.20;;;11.70;99.90;;;;;;7405430;19;20592;-84
2023/12/25 03:09:53;;;;;;;0.30;0.30;;;11.70;99.90;;;;;;7406817;19;20143;-84
2023/12/25 03:12:19;;;;;;;0.37;0.30;;;11.80;99.90;;;;;;7405340;19;20621;-83
2023/12/25 03:14:44;;;;;;;0.30;0.30;;;11.80;99.90;;;;;;7407701;19;20143;-83
2023/12/25 03:17:10;;;;;;;0.20;0.20;;;11.80;99.90;;;;;;7409704;19;20130;-84
2023/12/25 03:19:36;;;;;;;0.20;0.20;;;11.80;99.90;;;;;;7405467;19;20138;-81
2023/12/25 03:22:01;;;;;;;0.52;0.50;;;11.90;99.90;;;;;;7401599;19;20246;-83
2023/12/25 03:24:27;;;;;;;1.20;0.50;;;11.60;99.90;;;;;;7403779;19;20135;-82
2023/12/25 03:26:53;;;;;;;0.53;0.37;;;11.60;99.90;;;;;;7402100;19;20167;-84
2023/12/25 03:29:19;;;;;;;0.30;0.30;;;11.60;99.90;;;;;;7402948;19;20560;-83
2023/12/25 03:31:45;;;;;;;0.30;0.30;;;11.80;99.90;;;;;;7405462;19;20202;-84
2023/12/25 03:34:18;;;;;;;0.33;0.33;;;11.70;99.90;;;;;;7401695;19;20218;-84
2023/12/25 03:36:47;;;;;;;0.40;0.40;;;11.70;99.90;;;;;;7405534;19;20126;-83
2023/12/25 03:39:13;;;;;;;0.20;0.20;;;11.70;99.90;;;;;;7418770;19;20146;-82
2023/12/25 03:41:38;;;;;;;0.30;0.30;;;11.80;99.90;;;;;;7411687;19;20130;-83
2023/12/25 03:44:04;;;;;;;0.57;0.22;;;11.80;99.90;;;;;;7412939;19;20950;-83
2023/12/25 03:46:30;;;;;;;0.45;0.40;;;11.80;99.90;;;;;;7420920;19;20152;-84
2023/12/25 03:48:55;;;;;;;0.30;0.30;;;11.70;99.90;;;;;;7416075;19;20131;-81
2023/12/25 03:51:21;;;;;;;0.30;0.30;;;11.60;99.90;;;;;;7415837;19;20158;-82
2023/12/25 03:53:47;;;;;;;0.30;0.30;;;11.70;99.90;;;;;;7415487;19;20129;-84
2023/12/25 03:56:17;;;;;;;0.20;0.20;;;11.70;99.90;;;;;;7412021;19;20130;-83
2023/12/25 03:58:43;;;;;;;0.30;0.30;;;11.70;99.90;;;;;;7403338;19;20135;-85
2023/12/25 04:01:09;;;;;;;0.23;0.23;;;11.70;99.90;;;;;;7411996;19;20146;-83
2023/12/25 04:03:35;;;;;;;0.27;0.27;;;11.70;99.90;;;;;;7408983;19;20210;-83
2023/12/25 04:06:00;;;;;;;0.28;0.28;;;11.80;99.90;;;;;;7405424;19;20149;-82
2023/12/25 04:08:26;;;;;;;0.30;0.30;;;11.80;99.90;;;;;;7405390;19;20202;-83
2023/12/25 04:10:52;;;;;;;0.20;0.20;;;11.80;99.90;;;;;;7404068;19;20147;-85
2023/12/25 04:13:17;;;;;;;0.20;0.20;;;11.80;99.90;;;;;;7406539;19;20130;-84
2023/12/25 04:15:43;;;;;;;0.27;0.27;;;11.70;99.90;;;;;;7408264;19;20210;-85
2023/12/25 04:18:09;;;;;;;1.88;0.52;;;11.60;99.90;;;;;;7410528;19;20193;-84
2023/12/25 04:20:35;;;;;;;0.20;0.20;;;11.70;99.90;;;;;;7402678;19;20205;-83
2023/12/25 04:23:01;;;;;;;0.63;0.30;;;11.70;99.90;;;;;;7402134;19;20131;-84
2023/12/25 04:25:26;;;;;;;0.22;0.22;;;11.70;99.90;;;;;;7406804;19;20157;-84
2023/12/25 04:27:52;;;;;;;0.30;0.30;;;11.70;99.90;;;;;;7396976;19;20545;-84
2023/12/25 04:30:18;;;;;;;0.20;0.20;;;11.70;99.90;;;;;;7401074;19;20150;-84
2023/12/25 04:32:44;;;;;;;0.53;0.40;;;11.80;99.90;;;;;;7408105;19;20133;-84
2023/12/25 04:35:09;;;;;;;0.20;0.20;;;11.80;99.90;;;;;;7409501;19;20545;-83
2023/12/25 04:37:35;;;;;;;0.35;0.30;;;11.90;99.90;;;;;;7407548;19;20131;-84
2023/12/25 04:40:01;;;;;;;0.30;0.30;;;11.90;99.90;;;;;;7399486;19;20145;-85
2023/12/25 04:42:26;;;;;;;0.30;0.30;;;11.50;99.90;;;;;;7402690;19;20151;-83
2023/12/25 04:44:52;;;;;;;0.27;0.27;;;11.60;99.90;;;;;;7399346;19;20130;-83
2023/12/25 04:47:18;;;;;;;0.80;0.30;;;11.50;99.90;;;;;;7395951;19;20483;-82
2023/12/25 04:49:44;;;;;;;0.45;0.38;;;11.70;99.90;;;;;;7392276;19;20526;-82
2023/12/25 04:52:09;;;;;;;0.20;0.20;;;11.60;99.90;;;;;;7392968;19;20126;-81
2023/12/25 04:54:35;;;;;;;0.32;0.20;;;11.60;99.90;;;;;;7392910;19;20174;-82
2023/12/25 04:57:01;;;;;;;0.32;0.32;;;11.50;99.90;;;;;;7396070;19;20147;-84
2023/12/25 04:59:27;;;;;;;0.20;0.20;;;11.40;99.90;;;;;;7400050;19;20145;-84
2023/12/25 05:01:53;;;;;;;0.30;0.30;;;11.70;99.90;;;;;;7399790;19;20472;-84
2023/12/25 05:04:19;;;;;;;0.40;0.37;;;11.70;99.90;;;;;;7397865;19;20185;-83
2023/12/25 05:06:45;;;;;;;0.55;0.28;;;11.50;99.90;;;;;;7398891;19;20206;-83
2023/12/25 05:09:11;;;;;;;0.25;0.20;;;11.50;99.90;;;;;;7399663;19;20146;-83
2023/12/25 05:11:37;;;;;;;0.30;0.30;;;11.60;99.90;;;;;;7400053;19;20135;-82
2023/12/25 05:14:02;;;;;;;0.20;0.20;;;11.80;99.90;;;;;;7400022;19;20146;-85
2023/12/25 05:16:28;;;;;;;0.20;0.20;;;11.70;99.90;;;;;;7398698;19;20158;-85
2023/12/25 05:18:54;;;;;;;0.30;0.30;;;11.50;99.90;;;;;;7397010;19;20142;-85
2023/12/25 05:21:19;;;;;;;0.50;0.50;;;11.50;99.90;;;;;;7403216;19;20134;-82
2023/12/25 05:23:45;;;;;;;0.28;0.28;;;11.50;99.90;;;;;;7401116;19;20139;-84
2023/12/25 05:26:12;;;;;;;0.45;0.35;;;11.50;99.90;;;;;;7402767;19;20131;-84
2023/12/25 05:28:38;;;;;;;0.85;0.20;;;11.40;99.90;;;;;;7412570;19;20155;-84
2023/12/25 05:31:03;;;;;;;0.20;0.20;;;11.50;99.90;;;;;;7412597;19;20130;-82
2023/12/25 05:33:29;;;;;;;0.20;0.20;;;11.50;99.90;;;;;;7414741;19;20187;-85
2023/12/25 05:35:55;;;;;;;0.20;0.20;;;11.60;99.90;;;;;;7407718;19;20463;-85
2023/12/25 05:38:21;;;;;;;0.50;0.40;;;11.50;99.90;;;;;;7405063;19;20561;-84
2023/12/25 05:40:46;;;;;;;0.30;0.30;;;11.60;99.90;;;;;;7409446;19;20165;-83
2023/12/25 05:43:12;;;;;;;0.40;0.40;;;11.50;99.90;;;;;;7407113;19;20142;-85
2023/12/25 05:45:38;;;;;;;0.32;0.30;;;11.60;99.90;;;;;;7408520;19;20139;-84
2023/12/25 05:48:04;;;;;;;0.55;0.55;;;11.40;99.90;;;;;;7408226;19;20146;-84
2023/12/25 05:50:30;;;;;;;0.30;0.30;;;11.50;99.90;;;;;;7401154;19;20135;-84
2023/12/25 05:52:56;;;;;;;0.45;0.32;;;11.60;99.90;;;;;;7399579;19;20123;-85
2023/12/25 05:55:22;;;;;;;0.30;0.30;;;11.60;99.90;;;;;;7396979;19;20130;-84
2023/12/25 05:57:48;;;;;;;0.40;0.40;;;11.70;99.90;;;;;;7399792;19;20123;-84
2023/12/25 06:00:14;;;;;;;0.30;0.30;;;11.60;99.90;;;;;;7395570;19;20119;-84
2023/12/25 06:02:40;;;;;;;0.20;0.20;;;11.60;99.90;;;;;;7403891;19;20138;-84
2023/12/25 06:05:06;;;;;;;0.57;0.40;;;11.50;99.90;;;;;;7401743;19;20178;-83
2023/12/25 06:07:33;;;;;;;0.30;0.30;;;11.50;99.90;;;;;;7404445;19;20127;-85
2023/12/25 06:09:59;;;;;;;0.30;0.30;;;11.40;99.90;;;;;;7403632;19;20146;-85
2023/12/25 06:12:25;;;;;;;0.28;0.28;;;11.50;99.90;;;;;;7401328;19;20147;-84
2023/12/25 06:14:51;;;;;;;0.40;0.40;;;11.50;99.90;;;;;;7402073;19;20154;-84
2023/12/25 06:17:16;;;;;;;0.20;0.20;;;11.60;99.90;;;;;;7403788;19;20157;-83
2023/12/25 06:19:42;;;;;;;0.20;0.20;;;11.60;99.90;;;;;;7402445;19;20134;-84
2023/12/25 06:22:08;;;;;;;0.63;0.40;;;11.70;99.90;;;;;;7402002;19;20142;-85
2023/12/25 06:24:34;;;;;;;0.20;0.20;;;11.70;99.90;;;;;;7399234;19;20158;-84
2023/12/25 06:26:59;;;;;;;0.30;0.30;;;11.80;99.90;;;;;;7403559;19;20146;-84
2023/12/25 06:29:25;;;;;;;0.30;0.30;;;11.60;99.90;;;;;;7401022;19;20144;-85
2023/12/25 06:31:51;;;;;;;0.63;0.63;;;11.60;99.90;;;;;;7399828;19;20484;-84
2023/12/25 06:34:16;;;;;;;0.20;0.20;;;11.70;99.90;;;;;;7402398;19;20456;-84
2023/12/25 06:36:42;;;;;;;0.30;0.30;;;11.60;99.90;;;;;;7396629;19;20131;-84
2023/12/25 06:39:08;;;;;;;0.10;0.10;;;11.70;99.90;;;;;;7396601;19;20636;-84
2023/12/25 06:41:35;;;;;;;0.30;0.30;;;11.50;99.90;;;;;;7403822;19;20142;-81
2023/12/25 06:44:01;;;;;;;0.30;0.30;;;11.70;99.90;;;;;;7403608;19;20139;-84
2023/12/25 06:46:26;;;;;;;0.50;0.40;;;11.60;99.90;;;;;;7405724;19;20474;-84
2023/12/25 06:48:52;;;;;;;0.30;0.30;;;11.60;99.90;;;;;;7405180;19;20127;-85
2023/12/25 06:51:18;;;;;;;0.20;0.20;;;11.50;99.90;;;;;;7410082;19;20583;-85
2023/12/25 06:53:44;;;;;;;0.20;0.20;;;11.60;99.90;;;;;;7405874;19;20130;-83
2023/12/25 06:56:10;;;;;;;0.40;0.40;;;11.70;99.90;;;;;;7410019;19;20131;-84
2023/12/25 06:58:36;;;;;;;0.30;0.30;;;11.70;99.90;;;;;;7404855;19;20130;-84
2023/12/25 07:01:06;;;;;;;0.63;0.30;;;11.70;99.90;;;;;;7406834;19;20160;-84
2023/12/25 07:03:32;;;;;;;0.30;0.30;;;11.70;99.90;;;;;;7397744;19;20150;-82
2023/12/25 07:05:57;;;;;;;0.40;0.40;;;11.70;99.90;;;;;;7405887;19;20140;-83
2023/12/25 07:08:27;;;;;;;0.57;0.33;;;11.90;99.90;;;;;;7405909;19;20142;-82
2023/12/25 07:10:54;;;;;;;0.47;0.47;;;11.80;99.90;;;;;;7409027;19;20146;-83
2023/12/25 07:13:20;;;;;;;0.30;0.30;;;11.60;99.90;;;;;;7409953;19;20151;-83
2023/12/25 07:15:46;;;;;;;0.20;0.20;;;11.70;99.90;;;;;;7404491;19;20131;-84
2023/12/25 07:18:11;;;;;;;0.65;0.50;;;11.70;99.90;;;;;;7404620;19;20146;-84
2023/12/25 07:20:37;;;;;;;0.63;0.30;;;11.50;99.90;;;;;;7401156;19;20158;-83
2023/12/25 07:23:03;;;;;;;0.30;0.30;;;11.60;99.90;;;;;;7403368;19;20142;-84
2023/12/25 07:25:29;;;;;;;0.30;0.30;;;11.70;99.90;;;;;;7399545;19;20605;-84
2023/12/25 07:27:54;;;;;;;0.25;0.25;;;11.80;99.90;;;;;;7398074;19;20158;-85
2023/12/25 07:30:20;;;;;;;0.25;0.25;;;11.80;99.90;;;;;;7399951;19;20480;-84
2023/12/25 07:32:46;;;;;;;0.68;0.30;;;11.80;99.90;;;;;;7396431;19;20541;-84
2023/12/25 07:35:12;;;;;;;0.20;0.20;;;11.80;99.90;;;;;;7398486;19;20135;-84
2023/12/25 07:37:38;;;;;;;0.50;0.50;;;11.60;99.90;;;;;;7398734;19;20133;-83
2023/12/25 07:40:04;;;;;;;0.70;0.60;;;11.60;99.90;;;;;;7396459;19;20134;-83
2023/12/25 07:42:30;;;;;;;0.20;0.20;;;11.60;99.90;;;;;;7397380;19;20237;-82
2023/12/25 07:44:56;;;;;;;0.93;0.60;;;11.70;99.90;;;;;;7396858;19;20146;-82
2023/12/25 07:47:22;;;;;;;0.30;0.30;;;11.80;99.90;;;;;;7396729;19;20600;-82
2023/12/25 07:49:47;;;;;;;0.30;0.30;;;11.80;99.90;;;;;;7394200;19;20172;-82
2023/12/25 07:52:13;;;;;;;0.27;0.27;;;11.70;99.90;;;;;;7397698;19;20214;-82
2023/12/25 07:54:39;;;;;;;0.30;0.30;;;11.80;99.90;;;;;;7396957;19;20138;-81
2023/12/25 07:57:04;;;;;;;0.30;0.30;;;11.60;99.90;;;;;;7397702;19;20155;-82
2023/12/25 07:59:30;;;;;;;0.20;0.20;;;11.60;99.90;;;;;;7396146;19;20481;-79
2023/12/25 08:01:56;;;;;;;0.20;0.20;;;11.50;99.90;;;;;;7397508;19;20159;-80
2023/12/25 08:04:22;;;;;;;0.40;0.40;;;11.50;99.90;;;;;;7395045;19;20182;-82
2023/12/25 08:06:47;;;;;;;0.30;0.30;;;11.60;99.90;;;;;;7395744;19;20150;-81
2023/12/25 08:09:13;;;;;;;0.40;0.40;;;11.60;99.90;;;;;;7395951;19;20551;-83
2023/12/25 08:11:39;;;;;;;1.13;0.37;;;11.60;99.90;;;;;;7398707;19;20146;-83
2023/12/25 08:14:04;;;;;;;0.50;0.50;;;11.50;99.90;;;;;;7395058;19;20130;-83
2023/12/25 08:16:31;;;;;;;0.30;0.30;;;11.60;99.90;;;;;;7394589;19;20542;-82
2023/12/25 08:18:56;;;;;;;0.40;0.40;;;11.70;99.90;;;;;;7394795;19;20391;-82
2023/12/25 08:21:23;;;;;;;0.55;0.50;;;11.70;99.90;;;;;;7395343;19;20497;-81
2023/12/25 08:23:49;;;;;;;0.40;0.35;;;11.70;99.90;;;;;;7396540;19;20143;-80
2023/12/25 08:26:15;;;;;;;0.40;0.40;;;11.70;99.90;;;;;;7395996;19;20143;-83
2023/12/25 08:28:40;;;;;;;0.37;0.37;;;11.80;99.90;;;;;;7396926;19;20676;-84
2023/12/25 08:31:07;;;;;;;0.30;0.30;;;11.90;99.90;;;;;;7398395;19;20133;-84
2023/12/25 08:33:34;;;;;;;2.22;1.50;;;11.80;99.90;;;;;;7399185;19;20599;-83
2023/12/25 08:36:00;;;;;;;0.20;0.20;;;11.90;99.90;;;;;;7396878;19;20150;-85
2023/12/25 08:38:26;;;;;;;0.35;0.30;;;11.90;99.90;;;;;;7398224;19;20135;-84
2023/12/25 08:40:52;;;;;;;0.35;0.32;;;11.90;99.90;;;;;;7398099;19;20131;-86
2023/12/25 08:43:18;;;;;;;0.20;0.20;;;11.80;99.90;;;;;;7397271;19;20146;-85
2023/12/25 08:45:44;;;;;;;0.73;0.45;;;11.80;99.90;;;;;;7397052;19;20201;-85
2023/12/25 08:48:09;;;;;;;0.20;0.20;;;11.80;99.90;;;;;;7396614;19;20135;-84
2023/12/25 08:50:35;;;;;;;0.80;0.50;;;11.90;99.90;;;;;;7397737;19;20147;-84
2023/12/25 08:53:01;;;;;;;1.00;0.73;;;12.00;99.90;;;;;;7398636;19;20477;-86
2023/12/25 08:55:27;;;;;;;0.30;0.30;;;12.00;99.90;;;;;;7396762;19;20163;-89
2023/12/25 08:57:53;;;;;;;0.40;0.30;;;12.10;99.90;;;;;;7391923;19;20477;-81
2023/12/25 09:00:20;;;;;;;0.20;0.20;;;11.90;99.90;;;;;;7393320;19;20163;-81
2023/12/25 09:02:46;;;;;;;0.30;0.30;;;12.00;99.90;;;;;;7394978;19;20134;-81
2023/12/25 09:05:14;;;;;;;0.38;0.38;;;11.80;99.90;;;;;;7390532;19;20178;-80
2023/12/25 09:07:40;;;;;;;0.30;0.30;;;11.90;99.90;;;;;;7393094;19;20150;-82
2023/12/25 09:10:06;;;;;;;0.20;0.20;;;12.20;99.90;;;;;;7393037;19;20135;-81
2023/12/25 09:12:33;;;;;;;0.33;0.33;;;12.20;99.90;;;;;;7394049;19;20138;-81
2023/12/25 09:14:59;;;;;;;0.30;0.30;;;12.00;99.90;;;;;;7392438;19;20130;-85
2023/12/25 09:17:24;;;;;;;0.33;0.30;;;12.00;99.90;;;;;;7393748;19;20135;-84
2023/12/25 09:19:53;;;;;;;0.68;0.30;;;11.90;99.90;;;;;;7393601;19;20159;-85
2023/12/25 09:22:21;;;;;;;0.20;0.20;;;11.80;99.90;;;;;;7396989;19;20131;-84
2023/12/25 09:24:47;;;;;;;0.30;0.30;;;11.80;99.90;;;;;;7393056;19;20149;-84
2023/12/25 09:27:12;;;;;;;0.40;0.40;;;11.90;99.90;;;;;;7394144;19;20198;-85
2023/12/25 09:29:38;;;;;;;0.40;0.20;;;11.90;99.90;;;;;;7392797;19;20557;-85
2023/12/25 09:32:04;;;;;;;0.30;0.30;;;12.00;99.90;;;;;;7393840;19;20841;-82
2023/12/25 09:34:30;;;;;;;0.40;0.40;;;12.20;99.90;;;;;;7394206;19;20155;-86
2023/12/25 09:36:58;;;;;;;0.47;0.47;;;12.40;99.90;;;;;;7393450;19;20131;-85
2023/12/25 09:39:24;;;;;;;0.30;0.30;;;12.30;99.90;;;;;;7392942;19;20487;-81
2023/12/25 09:41:50;;;;;;;0.35;0.25;;;12.40;99.90;;;;;;7396819;19;20656;-81
2023/12/25 09:44:16;;;;;;;0.47;0.43;;;12.50;99.90;;;;;;7394024;19;20135;-81
2023/12/25 09:46:44;;;;;;;0.43;0.43;;;12.50;99.90;;;;;;7393389;19;20176;-82
2023/12/25 09:49:10;;;;;;;0.25;0.25;;;12.40;99.90;;;;;;7396144;19;20151;-83
2023/12/25 09:51:36;;;;;;;0.37;0.37;;;12.40;99.90;;;;;;7388434;19;20512;-82
2023/12/25 09:54:02;;;;;;;0.20;0.20;;;12.30;99.90;;;;;;7391334;19;20166;-81
2023/12/25 09:56:34;;;;;;;0.30;0.30;;;12.20;99.90;;;;;;7391686;19;20146;-82
2023/12/25 09:59:00;;;;;;;0.30;0.30;;;12.30;99.90;;;;;;7393213;19;20138;-82
2023/12/25 10:01:26;;;;;;;0.40;0.40;;;12.20;99.90;;;;;;7386843;19;20149;-82
2023/12/25 10:03:52;;;;;;;0.30;0.30;;;12.30;99.90;;;;;;7390771;19;20249;-82
2023/12/25 10:06:21;;;;;;;0.40;0.37;;;12.50;99.90;;;;;;7390380;19;20173;-80
2023/12/25 10:08:47;;;;;;;0.30;0.30;;;12.50;99.90;;;;;;7392843;19;20134;-82
2023/12/25 10:11:13;;;;;;;0.30;0.30;;;12.30;99.90;;;;;;7390462;19;20532;-82
2023/12/25 10:13:43;;;;;;;0.35;0.25;;;12.20;99.90;;;;;;7394385;19;20186;-82
2023/12/25 10:16:09;;;;;;;0.73;0.30;;;12.20;99.90;;;;;;7398916;19;20142;-81
2023/12/25 10:18:39;;;;;;;0.45;0.25;;;12.30;99.90;;;;;;7394807;19;20130;-81
2023/12/25 10:21:06;;;;;;;0.20;0.20;;;12.30;99.90;;;;;;7395829;19;20188;-81
2023/12/25 10:23:33;;;;;;;0.30;0.30;;;12.20;99.90;;;;;;7398578;19;20142;-82
2023/12/25 10:26:02;;;;;;;0.40;0.40;;;12.30;99.90;;;;;;7397407;19;20130;-81
2023/12/25 10:28:29;;;;;;;0.52;0.52;;;12.30;99.90;;;;;;7397777;19;20161;-81
2023/12/25 10:31:03;;;;;;;0.20;0.20;;;12.50;99.90;;;;;;7396074;19;20158;-84
2023/12/25 10:33:31;;;;;;;0.30;0.30;;;12.50;99.90;;;;;;7398852;19;20155;-82
2023/12/25 10:36:15;;;;;;;0.22;0.22;;;12.50;99.90;;;;;;7396713;19;20466;-82
2023/12/25 10:38:42;;;;;;;0.30;0.30;;;12.40;99.90;;;;;;7397368;19;20146;-83
2023/12/25 10:41:23;;;;;;;0.40;0.40;;;12.50;99.90;;;;;;7396344;19;20135;-81
2023/12/25 10:43:58;;;;;;;0.40;0.30;;;12.50;99.90;;;;;;7395136;19;20148;-82
2023/12/25 10:46:38;;;;;;;0.22;0.22;;;12.50;99.90;;;;;;7398020;19;20134;-82
2023/12/25 10:49:06;;;;;;;0.13;0.13;;;12.60;99.90;;;;;;7396570;19;20130;-82
2023/12/25 10:51:38;;;;;;;0.25;0.25;;;12.70;99.90;;;;;;7399184;19;20496;-82
2023/12/25 10:54:05;;;;;;;0.30;0.25;;;12.70;99.90;;;;;;7398959;19;20600;-82
2023/12/25 10:56:33;;;;;;;0.20;0.20;;;12.90;99.90;;;;;;7396705;19;20139;-82
2023/12/25 10:59:40;;;;;;;0.30;0.30;;;13.10;99.90;;;;;;7397247;19;20523;-82
2023/12/25 11:02:13;;;;;;;0.28;0.28;;;13.00;99.90;;;;;;7400200;19;20169;-84
2023/12/25 11:04:40;;;;;;;0.30;0.30;;;13.30;99.90;;;;;;7399780;19;20250;-82
2023/12/25 11:07:06;;;;;;;0.30;0.30;;;13.20;99.90;;;;;;7399009;19;20141;-82
2023/12/25 11:09:31;;;;;;;0.38;0.38;;;13.40;99.90;;;;;;7404480;19;20142;-83
2023/12/25 11:11:59;;;;;;;0.20;0.20;;;13.60;99.90;;;;;;7402603;19;20134;-83
2023/12/25 11:14:26;;;;;;;0.40;0.40;;;13.70;99.90;;;;;;7395079;19;20130;-83
2023/12/25 11:16:52;;;;;;;0.20;0.20;;;13.70;99.90;;;;;;7394255;19;20616;-83
2023/12/25 11:19:18;;;;;;;0.20;0.20;;;13.70;99.90;;;;;;7392601;19;20135;-81
2023/12/25 11:21:43;;;;;;;0.30;0.30;;;13.70;99.90;;;;;;7394746;19;20512;-82
2023/12/25 11:24:12;;;;;;;0.25;0.20;;;13.60;99.90;;;;;;7393032;19;20206;-81
2023/12/25 11:26:37;;;;;;;0.45;0.40;;;13.50;99.90;;;;;;7392230;19;20595;-82
2023/12/25 11:29:07;;;;;;;0.65;0.38;;;13.60;99.90;;;;;;7392369;19;20178;-82
2023/12/25 11:31:46;;;;;;;0.35;0.20;;;13.60;99.90;;;;;;7392481;19;20146;-80
2023/12/25 11:34:24;;;;;;;0.20;0.20;;;13.40;99.90;;;;;;7394339;19;20146;-80
2023/12/25 11:36:57;;;;;;;0.20;0.20;;;13.30;99.90;;;;;;7394053;19;20617;-79
2023/12/25 11:39:27;;;;;;;0.25;0.25;;;13.30;99.90;;;;;;7392792;19;20165;-80
2023/12/25 11:41:54;;;;;;;0.30;0.30;;;13.50;99.90;;;;;;7392815;19;20622;-79
2023/12/25 11:44:33;;;;;;;0.22;0.22;;;13.50;99.90;;;;;;7395354;19;20131;-79
2023/12/25 11:47:03;;;;;;;0.17;0.17;;;13.50;99.90;;;;;;7394401;19;20131;-79
2023/12/25 11:49:32;;;;;;;0.32;0.32;;;13.30;99.90;;;;;;7391943;19;20155;-79
2023/12/25 11:51:57;;;;;;;0.30;0.30;;;13.50;99.90;;;;;;7394360;19;20135;-80
2023/12/25 11:54:30;;;;;;;0.20;0.20;;;13.40;99.90;;;;;;7393140;19;20234;-80
2023/12/25 11:57:02;;;;;;;0.30;0.30;;;13.40;99.90;;;;;;7395372;19;20231;-80
2023/12/25 11:59:29;;;;;;;0.30;0.30;;;13.50;99.90;;;;;;7391872;19;20142;-79
2023/12/25 12:01:55;;;;;;;0.30;0.30;;;13.50;99.90;;;;;;7394289;19;20222;-79
2023/12/25 12:04:20;;;;;;;0.20;0.20;;;13.20;99.90;;;;;;7392978;19;20773;-80
2023/12/25 12:06:46;;;;;;;0.30;0.30;;;13.10;99.90;;;;;;7395063;19;20143;-81
2023/12/25 12:09:12;;;;;;;0.30;0.30;;;13.10;99.90;;;;;;7393239;19;20150;-81
2023/12/25 12:11:38;;;;;;;0.17;0.17;;;13.30;99.90;;;;;;7396885;19;20139;-85
2023/12/25 12:14:04;;;;;;;0.30;0.30;;;13.30;99.90;;;;;;7395846;19;20166;-81
2023/12/25 12:16:30;;;;;;;0.20;0.20;;;13.20;99.90;;;;;;7396369;19;20142;-83
2023/12/25 12:18:55;;;;;;;0.20;0.20;;;13.30;99.90;;;;;;7396241;19;20441;-84
2023/12/25 12:21:22;;;;;;;0.30;0.30;;;13.10;99.90;;;;;;7395487;19;20222;-80
2023/12/25 12:23:47;;;;;;;0.20;0.20;;;12.90;99.90;;;;;;7396794;19;20163;-81
2023/12/25 12:26:15;;;;;;;0.20;0.20;;;13.00;99.90;;;;;;7396010;19;20143;-84
2023/12/25 12:28:42;;;;;;;0.30;0.30;;;13.10;99.90;;;;;;7398296;19;20138;-82
2023/12/25 12:31:08;;;;;;;0.70;0.40;;;13.10;99.90;;;;;;7394576;19;20158;-81
2023/12/25 12:33:34;;;;;;;0.52;0.43;;;13.00;99.90;;;;;;7395783;19;20464;-80
2023/12/25 12:36:02;;;;;;;0.30;0.30;;;13.00;99.90;;;;;;7394499;19;20603;-81
2023/12/25 12:38:28;;;;;;;0.30;0.30;;;12.90;99.90;;;;;;7395720;19;20229;-80
2023/12/25 12:40:53;;;;;;;0.20;0.20;;;12.90;99.90;;;;;;7393065;19;20215;-80
2023/12/25 12:43:22;;;;;;;0.20;0.20;;;12.90;99.90;;;;;;7394790;19;20142;-81
2023/12/25 12:45:48;;;;;;;0.30;0.30;;;13.00;99.90;;;;;;7394438;19;20134;-79